Terminal Aerodrome Forecast
Issued by NWS

Home | Current Version | Previous Version | Text Only | Print | Product List | Glossary Off
Versions: 1 2 3 4 5 6 7 8 9 10 11 12 13 14

000
FTUS43 KGRB 150500
TAFATW
TAF
KATW 150530Z 1506/1606 24008KT P6SM VCSH SCT040 OVC080
      TEMPO 1511/1515 5SM -SHRA BKN040
     FM151700 28006KT P6SM VCSH SCT040 BKN070
     FM152100 31007KT P6SM SCT070
     FM160000 30005KT P6SM SKC=

USA.gov is the U.S. government's official web portal to all federal, state and local government web resources and services.